Time;durP1;ratioP1;P1;durP2;ratioP2;P2;SDS_P1;SDS_P2;PMS_P1;PMS_P2;Temp;Humidity;BMP_temperature;BMP_pressure;BME280_temperature;BME280_humidity;BME280_pressure;Samples;Min_cycle;Max_cycle;Signal;HPM_P1;HPM_P2
2023/05/26 00:01:07;;;;;;;;;12.33;12.33;;;;;17.79;47.89;102268.75;6211296;22;45670;-53
2023/05/26 00:03:34;;;;;;;;;13.67;13.67;;;;;17.75;48.61;102266.34;6212096;22;46201;-53
2023/05/26 00:06:00;;;;;;;;;18.00;14.00;;;;;17.75;48.16;102261.81;6210466;22;45366;-53
2023/05/26 00:08:25;;;;;;;;;12.67;11.33;;;;;17.74;48.37;102256.53;6212025;22;45667;-52
2023/05/26 00:10:51;;;;;;;;;12.33;12.33;;;;;17.71;47.46;102262.09;6185432;22;45376;-50
2023/05/26 00:13:16;;;;;;;;;11.67;8.67;;;;;17.67;48.56;102259.56;6184416;22;48101;-50
2023/05/26 00:15:42;;;;;;;;;19.67;16.33;;;;;17.64;48.98;102264.28;6209922;22;45269;-52
2023/05/26 00:18:07;;;;;;;;;12.00;10.67;;;;;17.60;48.57;102257.28;6213125;22;65170;-51
2023/05/26 00:20:33;;;;;;;;;16.33;14.33;;;;;17.58;48.67;102257.38;6214186;22;47549;-51
2023/05/26 00:22:58;;;;;;;;;17.00;14.00;;;;;17.55;49.63;102252.19;6186207;22;45319;-50
2023/05/26 00:25:24;;;;;;;;;13.00;12.67;;;;;17.53;49.10;102259.47;6188134;22;45370;-53
2023/05/26 00:27:50;;;;;;;;;16.00;14.00;;;;;17.50;48.38;102259.66;6214892;22;45391;-52
2023/05/26 00:30:15;;;;;;;;;16.67;15.00;;;;;17.47;49.92;102258.00;6189062;22;45376;-52
2023/05/26 00:32:40;;;;;;;;;14.33;12.67;;;;;17.44;50.23;102252.81;6215355;22;45572;-52
2023/05/26 00:35:06;;;;;;;;;18.33;14.67;;;;;17.40;48.83;102253.91;6212850;22;64115;-51
2023/05/26 00:37:32;;;;;;;;;16.33;14.00;;;;;17.37;49.89;102254.09;6186421;22;45416;-53
2023/05/26 00:39:58;;;;;;;;;15.33;14.00;;;;;17.31;49.58;102249.94;6214520;22;45272;-51
2023/05/26 00:42:23;;;;;;;;;18.00;15.00;;;;;17.30;49.94;102252.69;6214951;22;45330;-50
2023/05/26 00:44:50;;;;;;;;;16.33;16.33;;;;;17.27;49.82;102244.81;6213500;22;45288;-50
2023/05/26 00:47:16;;;;;;;;;16.00;15.00;;;;;17.26;49.93;102238.56;6189610;22;45309;-51
2023/05/26 00:49:41;;;;;;;;;14.33;13.67;;;;;17.19;51.59;102240.75;6215881;22;45340;-50
2023/05/26 00:52:07;;;;;;;;;20.33;17.00;;;;;17.16;50.73;102238.19;6214346;22;55395;-51
2023/05/26 00:54:32;;;;;;;;;17.00;15.67;;;;;17.13;50.13;102238.38;6213192;22;67540;-50
2023/05/26 00:56:58;;;;;;;;;15.67;15.67;;;;;17.09;51.20;102236.81;6187763;22;45380;-52
2023/05/26 00:59:24;;;;;;;;;23.00;18.00;;;;;17.07;50.57;102246.78;6187495;22;45321;-50
2023/05/26 01:01:49;;;;;;;;;17.67;13.33;;;;;17.06;51.49;102238.78;6188515;22;46425;-52
2023/05/26 01:04:15;;;;;;;;;18.67;17.67;;;;;17.01;50.97;102234.53;6212139;22;69172;-49
2023/05/26 01:06:41;;;;;;;;;21.67;16.33;;;;;16.99;51.48;102240.97;6213952;22;45234;-51
2023/05/26 01:09:06;;;;;;;;;23.67;17.33;;;;;16.95;52.39;102247.47;6188005;22;45536;-51
2023/05/26 01:11:44;;;;;;;;;17.33;16.67;;;;;16.91;50.75;102245.84;6214433;22;66520;-53
2023/05/26 01:14:20;;;;;;;;;22.33;18.33;;;;;16.91;50.98;102240.47;6186966;22;45323;-49
2023/05/26 01:16:52;;;;;;;;;14.00;14.00;;;;;16.89;51.92;102250.44;6187491;22;45404;-51
2023/05/26 01:19:46;;;;;;;;;20.33;17.00;;;;;16.84;51.18;102239.91;6214164;22;45366;-51
2023/05/26 01:22:43;;;;;;;;;24.00;17.33;;;;;16.80;54.01;102244.59;6214323;22;45636;-51
2023/05/26 01:25:49;;;;;;;;;21.67;18.33;;;;;16.76;53.56;102248.38;6187327;22;45182;-52
2023/05/26 01:28:16;;;;;;;;;16.00;15.00;;;;;16.68;54.10;102251.47;6212797;22;45756;-51
2023/05/26 01:30:42;;;;;;;;;15.33;13.33;;;;;16.63;55.03;102252.69;6186322;22;45436;-50
2023/05/26 01:33:07;;;;;;;;;21.33;19.00;;;;;16.57;53.18;102245.81;6186839;22;46327;-51
2023/05/26 01:35:33;;;;;;;;;19.67;17.67;;;;;16.54;52.83;102249.53;6215059;22;45272;-52
2023/05/26 01:37:59;;;;;;;;;26.67;20.00;;;;;16.51;52.98;102252.38;6188409;22;45324;-52
2023/05/26 01:40:24;;;;;;;;;24.33;20.00;;;;;16.47;53.57;102252.63;6187157;22;45229;-53
2023/05/26 01:42:57;;;;;;;;;17.33;16.67;;;;;16.43;55.53;102254.59;6213756;22;67238;-53
2023/05/26 01:45:26;;;;;;;;;24.00;20.33;;;;;16.36;53.79;102250.47;6188058;22;45321;-53
2023/05/26 01:47:56;;;;;;;;;21.33;18.33;;;;;16.32;54.20;102255.16;6187655;22;45386;-53
2023/05/26 01:50:25;;;;;;;;;22.67;20.33;;;;;16.29;55.73;102260.66;6187877;22;45278;-53
2023/05/26 01:52:51;;;;;;;;;23.00;21.67;;;;;16.23;54.45;102255.63;6187159;22;45328;-50
2023/05/26 01:55:18;;;;;;;;;17.33;14.00;;;;;16.18;54.46;102253.16;6186733;22;66769;-50
2023/05/26 01:57:45;;;;;;;;;22.00;19.33;;;;;16.18;54.61;102249.63;6215555;22;45307;-50
2023/05/26 02:00:12;;;;;;;;;22.67;20.00;;;;;16.15;54.35;102253.34;6186890;22;63232;-50
2023/05/26 02:02:37;;;;;;;;;22.67;18.00;;;;;16.14;55.02;102256.06;6188124;22;47103;-52
2023/05/26 02:05:03;;;;;;;;;20.33;17.67;;;;;16.12;54.66;102255.28;6213549;22;45292;-52
2023/05/26 02:07:29;;;;;;;;;25.00;19.67;;;;;16.11;54.31;102266.97;6212488;22;45333;-51
2023/05/26 02:09:55;;;;;;;;;20.33;16.00;;;;;16.07;54.50;102257.34;6187725;22;45332;-50
2023/05/26 02:12:20;;;;;;;;;18.67;15.33;;;;;16.05;54.26;102260.13;6215344;22;45523;-50
2023/05/26 02:14:45;;;;;;;;;22.33;19.00;;;;;16.03;54.41;102259.31;6213237;22;45309;-52
2023/05/26 02:17:11;;;;;;;;;20.67;20.00;;;;;16.04;54.38;102266.41;6186658;22;57731;-50
2023/05/26 02:19:36;;;;;;;;;18.33;15.00;;;;;16.03;54.54;102260.19;6187972;22;45359;-53
2023/05/26 02:22:01;;;;;;;;;17.33;15.33;;;;;16.01;55.19;102259.38;6212917;22;45944;-51
2023/05/26 02:24:27;;;;;;;;;25.00;22.33;;;;;16.03;55.48;102262.00;6213104;22;47444;-51
2023/05/26 02:26:52;;;;;;;;;21.00;18.33;;;;;16.00;55.12;102260.31;6213355;22;61303;-52
2023/05/26 02:29:17;;;;;;;;;19.33;17.67;;;;;15.98;55.97;102255.97;6186403;22;68238;-52
2023/05/26 02:31:43;;;;;;;;;16.67;14.33;;;;;15.94;55.50;102257.94;6211929;22;67039;-50
2023/05/26 02:34:10;;;;;;;;;16.33;14.67;;;;;15.88;56.42;102259.13;6214560;22;45353;-52
2023/05/26 02:36:36;;;;;;;;;16.33;16.33;;;;;15.86;55.42;102258.31;6215363;22;45340;-51
2023/05/26 02:39:01;;;;;;;;;24.00;19.00;;;;;15.84;55.24;102260.22;6187270;22;45276;-53
2023/05/26 02:41:26;;;;;;;;;19.33;17.33;;;;;15.84;55.26;102251.31;6212127;22;46200;-50
2023/05/26 02:43:52;;;;;;;;;17.33;16.00;;;;;15.83;55.73;102252.25;6212331;22;45252;-51
2023/05/26 02:46:17;;;;;;;;;18.33;14.00;;;;;15.80;55.53;102258.63;6214601;22;52002;-49
2023/05/26 02:48:43;;;;;;;;;19.33;15.67;;;;;15.77;55.10;102258.75;6214213;22;50631;-51
2023/05/26 02:51:08;;;;;;;;;16.67;13.33;;;;;15.75;56.63;102259.75;6186465;22;45297;-53
2023/05/26 02:53:34;;;;;;;;;22.00;16.00;;;;;15.72;56.05;102258.09;6160074;22;67962;-52
2023/05/26 02:55:59;;;;;;;;;18.33;14.33;;;;;15.69;56.05;102256.44;6213034;22;45070;-51
2023/05/26 02:58:25;;;;;;;;;20.00;14.33;;;;;15.67;55.48;102261.03;6214336;22;45268;-51
2023/05/26 03:00:50;;;;;;;;;18.67;14.33;;;;;15.67;55.74;102254.75;6213063;22;46475;-51
2023/05/26 03:03:16;;;;;;;;;19.00;16.33;;;;;15.65;55.92;102259.34;6188180;22;45276;-52
2023/05/26 03:05:42;;;;;;;;;15.67;14.00;;;;;15.64;56.82;102254.94;6213734;22;45501;-49
2023/05/26 03:08:07;;;;;;;;;19.00;12.67;;;;;15.57;55.97;102246.31;6186921;22;62334;-49
2023/05/26 03:10:33;;;;;;;;;18.67;13.67;;;;;15.57;56.50;102245.47;6187845;22;45395;-50
2023/05/26 03:12:58;;;;;;;;;14.33;14.00;;;;;15.52;56.29;102245.66;6211511;22;45363;-51
2023/05/26 03:15:26;;;;;;;;;18.33;14.33;;;;;15.47;56.25;102253.06;6187450;22;51284;-53
2023/05/26 03:17:51;;;;;;;;;17.00;16.00;;;;;15.44;56.59;102246.03;6214188;22;45315;-52
2023/05/26 03:20:16;;;;;;;;;16.67;13.33;;;;;15.42;56.48;102247.91;6214645;22;45484;-51
2023/05/26 03:22:42;;;;;;;;;17.33;15.33;;;;;15.38;56.04;102243.63;6214078;22;45271;-53
2023/05/26 03:25:07;;;;;;;;;18.00;15.33;;;;;15.37;56.88;102245.47;6214350;22;45379;-50
2023/05/26 03:27:33;;;;;;;;;16.67;15.67;;;;;15.35;57.02;102249.16;6214645;22;45288;-51
2023/05/26 03:29:58;;;;;;;;;18.33;16.33;;;;;15.29;58.11;102244.97;6211861;22;60473;-52
2023/05/26 03:32:23;;;;;;;;;13.33;13.33;;;;;15.26;56.77;102255.81;6185220;22;67428;-51
2023/05/26 03:34:48;;;;;;;;;17.00;14.33;;;;;15.23;57.23;102245.25;6213126;22;65119;-50
2023/05/26 03:37:15;;;;;;;;;16.00;13.67;;;;;15.20;56.92;102246.25;6213473;22;45438;-50
2023/05/26 03:39:41;;;;;;;;;18.67;14.33;;;;;15.19;56.66;102246.34;6214530;22;45342;-50
2023/05/26 03:42:06;;;;;;;;;25.33;17.33;;;;;15.21;56.34;102247.09;6186558;22;45747;-50
2023/05/26 03:44:32;;;;;;;;;16.33;14.00;;;;;15.22;56.65;102248.84;6213051;22;45348;-50
2023/05/26 03:46:57;;;;;;;;;22.00;16.33;;;;;15.20;56.90;102254.28;6186383;22;45525;-52
2023/05/26 03:49:23;;;;;;;;;17.67;14.00;;;;;15.22;57.53;102248.84;6186408;22;69209;-53
2023/05/26 03:51:48;;;;;;;;;19.67;16.00;;;;;15.22;56.38;102252.38;6214043;22;56808;-52
2023/05/26 03:54:13;;;;;;;;;19.67;14.33;;;;;15.22;56.87;102246.19;6186224;22;58742;-52
2023/05/26 03:56:39;;;;;;;;;16.33;14.00;;;;;15.22;57.37;102241.66;6187680;22;45346;-52
2023/05/26 03:59:04;;;;;;;;;23.00;16.33;;;;;15.21;57.19;102245.31;6186202;22;47608;-51
2023/05/26 04:01:30;;;;;;;;;16.67;14.67;;;;;15.18;57.69;102242.75;6215645;22;49270;-52
2023/05/26 04:03:55;;;;;;;;;18.33;14.67;;;;;15.17;57.12;102248.19;6188578;22;45391;-50
2023/05/26 04:06:22;;;;;;;;;16.33;14.67;;;;;15.15;56.47;102240.25;6215534;22;64459;-53
2023/05/26 04:08:48;;;;;;;;;22.00;16.33;;;;;15.12;57.73;102235.03;6215783;22;45378;-51
2023/05/26 04:11:13;;;;;;;;;16.00;16.00;;;;;15.11;57.46;102233.28;6213046;22;45279;-50
2023/05/26 04:13:39;;;;;;;;;17.33;11.00;;;;;15.10;57.30;102242.25;6214934;22;45268;-53
2023/05/26 04:16:05;;;;;;;;;17.00;14.00;;;;;15.09;57.58;102242.34;6187683;22;45499;-52
2023/05/26 04:18:31;;;;;;;;;19.33;12.67;;;;;15.04;57.55;102238.06;6215024;22;45529;-51
2023/05/26 04:20:56;;;;;;;;;17.33;15.00;;;;;15.02;57.84;102247.13;6213491;22;45249;-50
2023/05/26 04:23:21;;;;;;;;;11.33;11.33;;;;;15.00;58.26;102248.97;6188990;22;45281;-52
2023/05/26 04:25:47;;;;;;;;;17.67;14.33;;;;;14.99;57.85;102242.75;6215271;22;53323;-49
2023/05/26 04:28:14;;;;;;;;;21.33;14.00;;;;;15.03;57.33;102243.47;6214354;22;45717;-50
2023/05/26 04:30:40;;;;;;;;;14.33;13.00;;;;;15.09;57.10;102251.22;6214642;22;45292;-50
2023/05/26 04:33:07;;;;;;;;;13.67;13.00;;;;;15.12;58.35;102255.59;6214766;22;45753;-50
2023/05/26 04:35:33;;;;;;;;;22.00;16.33;;;;;15.14;58.54;102249.22;6214971;22;45184;-51
2023/05/26 04:37:58;;;;;;;;;12.67;12.33;;;;;15.10;57.40;102247.63;6213697;22;45432;-48
2023/05/26 04:40:24;;;;;;;;;25.33;14.67;;;;;15.11;57.66;102256.50;6188259;22;45766;-51
2023/05/26 04:42:49;;;;;;;;;19.00;16.00;;;;;15.14;57.28;102251.03;6188023;22;45404;-52
2023/05/26 04:45:15;;;;;;;;;15.00;12.67;;;;;15.17;57.04;102253.56;6185709;22;55837;-52
2023/05/26 04:47:40;;;;;;;;;14.33;14.00;;;;;15.21;57.41;102250.69;6215004;22;45314;-53
2023/05/26 04:50:06;;;;;;;;;15.33;13.67;;;;;15.25;57.75;102251.38;6187854;22;46560;-53
2023/05/26 04:52:32;;;;;;;;;20.33;17.00;;;;;15.28;57.57;102258.41;6188417;22;45520;-53
2023/05/26 04:54:57;;;;;;;;;13.33;12.33;;;;;15.30;57.72;102261.91;6212789;22;45388;-53
2023/05/26 04:57:22;;;;;;;;;18.67;15.67;;;;;15.29;58.05;102263.72;6213394;22;46168;-53
2023/05/26 04:59:48;;;;;;;;;21.67;13.67;;;;;15.31;56.63;102259.13;6213961;22;62323;-53
2023/05/26 05:02:13;;;;;;;;;15.00;12.33;;;;;15.38;56.74;102267.75;6186646;22;45985;-53
2023/05/26 05:04:43;;;;;;;;;19.00;13.33;;;;;15.46;56.61;102265.59;6187511;22;52129;-53
2023/05/26 05:07:09;;;;;;;;;13.00;11.33;;;;;15.61;56.86;102266.66;6215153;22;45510;-53
2023/05/26 05:09:34;;;;;;;;;14.67;14.67;;;;;15.74;56.18;102271.47;6213816;22;45781;-53
2023/05/26 05:12:00;;;;;;;;;17.33;17.33;;;;;15.79;56.21;102272.09;6214266;22;45224;-50
2023/05/26 05:14:25;;;;;;;;;14.33;14.00;;;;;15.83;55.39;102277.25;6215057;22;45567;-52
2023/05/26 05:16:51;;;;;;;;;14.00;14.00;;;;;15.87;55.87;102286.91;6186428;22;53470;-52
2023/05/26 05:19:16;;;;;;;;;19.33;15.33;;;;;15.91;55.41;102286.75;6214863;22;59135;-52
2023/05/26 05:21:41;;;;;;;;;17.67;15.67;;;;;15.96;55.05;102292.78;6214411;22;66297;-53
2023/05/26 05:24:07;;;;;;;;;21.00;15.00;;;;;16.01;55.78;102293.41;6187595;22;45430;-53
2023/05/26 05:26:32;;;;;;;;;14.00;14.00;;;;;16.04;55.42;102299.47;6187756;22;46819;-52
2023/05/26 05:28:57;;;;;;;;;29.33;19.33;;;;;16.08;54.77;102302.88;6186022;22;65310;-50
2023/05/26 05:31:23;;;;;;;;;24.33;16.33;;;;;16.10;54.87;102297.44;6214793;22;45273;-53
2023/05/26 05:33:48;;;;;;;;;19.00;14.00;;;;;16.12;55.16;102300.94;6186651;22;46330;-53
2023/05/26 05:36:13;;;;;;;;;19.67;14.67;;;;;16.18;54.41;102298.81;6211700;22;61052;-51
2023/05/26 05:38:39;;;;;;;;;23.33;17.67;;;;;16.23;54.88;102293.22;6213294;22;45315;-49
2023/05/26 05:41:04;;;;;;;;;17.33;14.33;;;;;16.29;54.59;102306.31;6213224;22;45556;-51
2023/05/26 05:43:30;;;;;;;;;24.67;18.67;;;;;16.33;54.38;102302.50;6212166;22;45558;-50
2023/05/26 05:45:55;;;;;;;;;17.67;15.00;;;;;16.34;54.71;102309.63;6187987;22;47118;-52
2023/05/26 05:48:20;;;;;;;;;14.33;12.00;;;;;16.38;54.62;102303.16;6213573;22;67770;-51
2023/05/26 05:50:46;;;;;;;;;21.67;17.00;;;;;16.42;54.08;102303.00;6215333;22;45265;-49
2023/05/26 05:53:11;;;;;;;;;18.67;17.00;;;;;16.46;54.26;102304.59;6162195;22;45317;-52
2023/05/26 05:55:36;;;;;;;;;19.67;14.00;;;;;16.50;54.06;102317.78;6188294;22;46494;-52
2023/05/26 05:58:02;;;;;;;;;22.00;15.00;;;;;16.56;53.87;102318.41;6186949;22;45264;-49
2023/05/26 06:00:27;;;;;;;;;20.67;16.33;;;;;16.62;53.86;102316.28;6212723;22;56946;-52
2023/05/26 06:02:53;;;;;;;;;15.00;14.67;;;;;16.70;53.75;102321.28;6213166;22;45211;-51
2023/05/26 06:05:18;;;;;;;;;20.00;17.67;;;;;16.81;53.61;102326.06;6213388;22;72513;-51
2023/05/26 06:07:44;;;;;;;;;27.33;18.00;;;;;16.88;52.97;102322.09;6213878;22;71527;-49
2023/05/26 06:10:09;;;;;;;;;22.33;17.67;;;;;16.95;53.05;102326.25;6214632;22;45366;-50
2023/05/26 06:12:35;;;;;;;;;17.33;15.33;;;;;17.02;52.74;102324.09;6215115;22;45513;-53
2023/05/26 06:15:00;;;;;;;;;19.00;14.67;;;;;17.08;52.50;102330.97;6212653;22;66145;-53
2023/05/26 06:17:26;;;;;;;;;15.67;15.00;;;;;17.18;52.68;102319.66;6186874;22;62885;-52
2023/05/26 06:19:51;;;;;;;;;17.33;15.00;;;;;17.29;52.38;102323.56;6213499;22;45327;-53
2023/05/26 06:22:16;;;;;;;;;21.00;18.00;;;;;17.44;51.93;102327.22;6214405;22;45240;-50
2023/05/26 06:24:42;;;;;;;;;16.67;14.00;;;;;17.65;51.51;102327.84;6185353;22;46038;-52
2023/05/26 06:27:07;;;;;;;;;21.33;14.67;;;;;17.88;51.20;102329.25;6185559;22;63086;-53
2023/05/26 06:29:32;;;;;;;;;16.00;14.67;;;;;18.12;50.69;102328.81;6186851;22;45800;-51
2023/05/26 06:31:58;;;;;;;;;23.67;16.00;;;;;18.33;50.99;102324.03;6212904;22;45589;-53
2023/05/26 06:34:23;;;;;;;;;23.33;12.67;;;;;19.41;48.22;102325.59;6162246;22;46602;-53
2023/05/26 06:36:50;;;;;;;;;22.00;18.67;;;;;20.76;47.10;102325.72;6213052;22;69202;-53
2023/05/26 06:39:15;;;;;;;;;19.00;13.33;;;;;22.11;44.59;102316.06;6210461;22;45735;-51
2023/05/26 06:41:40;;;;;;;;;19.67;14.33;;;;;23.38;42.57;102325.31;6212332;22;45316;-53
2023/05/26 06:44:06;;;;;;;;;16.00;13.00;;;;;24.55;41.59;102315.59;6185272;22;50145;-53
2023/05/26 06:46:31;;;;;;;;;19.00;15.67;;;;;25.69;39.84;102306.56;6213542;22;45427;-52
2023/05/26 06:48:57;;;;;;;;;21.33;16.33;;;;;26.49;36.66;102309.22;6213009;22;45357;-51
2023/05/26 06:51:25;;;;;;;;;19.67;13.33;;;;;27.08;33.10;102321.75;6212393;22;61826;-51
2023/05/26 06:53:50;;;;;;;;;20.67;14.33;;;;;27.59;35.04;102321.41;6211986;22;46223;-52
2023/05/26 06:56:15;;;;;;;;;17.33;15.67;;;;;28.14;32.69;102322.34;6213061;22;45406;-50
2023/05/26 06:58:41;;;;;;;;;15.67;12.00;;;;;28.76;32.13;102316.03;6182832;22;58751;-53
2023/05/26 07:01:07;;;;;;;;;16.33;16.33;;;;;29.36;31.11;102323.41;6212403;22;60907;-51
2023/05/26 07:03:33;;;;;;;;;15.67;12.67;;;;;29.99;31.30;102313.84;6213698;22;46211;-52
2023/05/26 07:05:59;;;;;;;;;15.33;12.00;;;;;30.67;30.16;102311.81;6213224;22;45856;-53
2023/05/26 07:08:25;;;;;;;;;15.33;10.33;;;;;31.28;29.86;102318.72;6214690;22;45317;-53
2023/05/26 07:10:50;;;;;;;;;13.00;10.67;;;;;31.70;28.43;102313.91;6186693;22;45734;-54
2023/05/26 07:13:16;;;;;;;;;15.00;13.00;;;;;32.12;25.78;102307.94;6187069;22;46129;-54
2023/05/26 07:15:41;;;;;;;;;16.00;12.67;;;;;32.48;27.01;102312.78;6212202;22;65329;-53
2023/05/26 07:18:07;;;;;;;;;15.33;12.67;;;;;32.65;26.67;102310.72;6212807;22;45277;-51
2023/05/26 07:20:33;;;;;;;;;13.67;13.67;;;;;32.90;25.35;102306.91;6183262;22;45606;-49
2023/05/26 07:22:58;;;;;;;;;17.00;12.33;;;;;33.29;25.46;102311.28;6211865;22;67997;-52
2023/05/26 07:25:24;;;;;;;;;19.33;12.67;;;;;33.91;25.73;102317.31;6182744;22;45313;-51
2023/05/26 07:27:49;;;;;;;;;18.50;13.75;;;;;34.52;24.96;102305.78;6213668;22;45435;-51
2023/05/26 07:30:15;;;;;;;;;15.00;12.00;;;;;35.27;22.88;102313.50;6213092;22;45303;-51
2023/05/26 07:32:40;;;;;;;;;18.00;12.00;;;;;35.72;24.26;102310.28;6212442;22;68441;-52
2023/05/26 07:35:06;;;;;;;;;14.33;11.67;;;;;36.29;22.73;102316.34;6212457;22;64213;-52
2023/05/26 07:37:31;;;;;;;;;13.00;10.33;;;;;36.64;22.87;102305.06;6209885;22;45375;-53
2023/05/26 07:39:57;;;;;;;;;13.00;9.67;;;;;37.10;21.59;102316.28;6212140;22;66552;-53
2023/05/26 07:42:22;;;;;;;;;13.67;13.33;;;;;37.47;20.42;102317.44;6210137;22;46266;-51
2023/05/26 07:44:47;;;;;;;;;15.00;13.00;;;;;37.72;20.22;102314.72;6211940;22;45409;-53
2023/05/26 07:47:13;;;;;;;;;13.00;13.00;;;;;37.83;19.88;102315.09;6181063;22;57429;-53
2023/05/26 07:49:38;;;;;;;;;17.00;13.00;;;;;38.07;18.75;102319.00;6211557;22;45671;-50
2023/05/26 07:52:04;;;;;;;;;11.67;11.67;;;;;38.27;19.57;102323.56;6185719;22;46721;-53
2023/05/26 07:54:29;;;;;;;;;10.00;10.00;;;;;38.74;19.59;102320.38;6212934;22;51423;-52
2023/05/26 07:56:54;;;;;;;;;15.00;12.00;;;;;39.07;19.02;102314.44;6213290;22;45563;-53
2023/05/26 07:59:20;;;;;;;;;14.00;10.67;;;;;39.46;17.51;102315.00;6185702;22;45660;-53
2023/05/26 08:01:46;;;;;;;;;19.67;13.00;;;;;39.79;16.76;102313.72;6213275;22;45553;-52
2023/05/26 08:04:11;;;;;;;;;19.67;15.33;;;;;40.06;18.42;102313.28;6214019;22;45342;-53
2023/05/26 08:06:36;;;;;;;;;14.33;11.67;;;;;40.34;17.59;102309.84;6211581;22;45801;-53
2023/05/26 08:09:02;;;;;;;;;12.33;9.67;;;;;40.54;17.92;102316.19;6213776;22;45375;-53
2023/05/26 08:11:28;;;;;;;;;12.00;11.67;;;;;40.58;17.40;102307.09;6213670;22;45184;-53
2023/05/26 08:13:53;;;;;;;;;10.00;10.00;;;;;40.83;16.00;102306.81;6213157;22;45649;-53
2023/05/26 08:16:19;;;;;;;;;10.00;9.67;;;;;40.96;16.71;102302.94;6213585;22;45348;-53
2023/05/26 08:18:44;;;;;;;;;15.00;11.67;;;;;41.62;15.40;102313.75;6213589;22;45436;-53
2023/05/26 08:21:10;;;;;;;;;16.00;12.33;;;;;42.21;15.80;102311.72;6211816;22;45289;-54
2023/05/26 08:23:35;;;;;;;;;14.00;11.33;;;;;42.97;16.07;102309.25;6183889;22;45430;-53
2023/05/26 08:26:01;;;;;;;;;15.67;12.33;;;;;43.50;15.92;102308.78;6185658;22;45310;-53
2023/05/26 08:28:26;;;;;;;;;16.25;12.50;;;;;43.97;14.35;102310.09;6211446;22;45435;-53
2023/05/26 08:30:52;;;;;;;;;14.00;12.33;;;;;44.31;14.98;102309.81;6211509;22;69626;-53
2023/05/26 08:33:17;;;;;;;;;11.00;11.00;;;;;44.92;14.47;102305.69;6214258;22;45415;-53
2023/05/26 08:35:42;;;;;;;;;14.00;11.75;;;;;45.56;13.79;102320.50;6214346;22;45521;-52
2023/05/26 08:38:08;;;;;;;;;21.00;15.67;;;;;45.81;11.21;102310.41;6212190;22;60735;-53
2023/05/26 08:40:33;;;;;;;;;14.75;12.00;;;;;46.15;13.99;102307.06;6212954;22;66835;-53
2023/05/26 08:43:07;;;;;;;;;14.33;14.00;;;;;46.99;12.67;102315.00;6211798;22;45285;-53
2023/05/26 08:45:33;;;;;;;;;17.33;13.67;;;;;47.58;12.88;102304.84;6213993;22;45343;-54
2023/05/26 08:48:01;;;;;;;;;16.00;14.00;;;;;48.09;11.76;102309.22;6214481;22;45346;-53
2023/05/26 08:50:30;;;;;;;;;15.00;11.75;;;;;48.61;11.40;102309.53;6187989;22;46791;-55
2023/05/26 08:52:56;;;;;;;;;11.33;11.33;;;;;49.11;10.88;102306.34;6214821;22;45161;-52
2023/05/26 08:55:22;;;;;;;;;12.25;11.00;;;;;49.60;11.18;102307.06;6214792;22;45363;-55
2023/05/26 08:57:48;;;;;;;;;13.75;12.50;;;;;50.04;9.37;102304.09;6187768;22;59804;-53
2023/05/26 09:00:15;;;;;;;;;13.50;12.50;;;;;50.58;10.60;102312.97;6214500;22;46692;-54
2023/05/26 09:02:41;;;;;;;;;15.50;12.00;;;;;51.28;9.86;102308.91;6215281;22;45271;-53
2023/05/26 09:05:08;;;;;;;;;13.25;11.25;;;;;51.53;9.39;102309.44;6214270;22;45365;-54
2023/05/26 09:07:33;;;;;;;;;11.00;9.50;;;;;52.05;9.85;102303.28;6214085;22;45327;-54
2023/05/26 09:10:20;;;;;;;;;12.50;11.50;;;;;52.37;9.75;102298.44;6213623;22;71395;-54
2023/05/26 09:12:47;;;;;;;;;11.25;9.25;;;;;52.57;8.46;102304.69;6213729;22;45402;-54
2023/05/26 09:15:15;;;;;;;;;12.25;11.00;;;;;51.73;8.00;102299.56;6186465;22;45345;-56
2023/05/26 09:17:41;;;;;;;;;17.00;12.33;;;;;51.42;9.36;102306.03;6186795;22;45330;-54
2023/05/26 09:20:07;;;;;;;;;11.33;11.33;;;;;51.83;9.98;102301.34;6213112;22;68269;-54
2023/05/26 09:22:33;;;;;;;;;16.00;13.00;;;;;52.39;9.28;102310.31;6214634;22;45477;-53
2023/05/26 09:24:58;;;;;;;;;16.33;12.67;;;;;52.33;9.06;102313.63;6187948;22;45400;-54
2023/05/26 09:27:24;;;;;;;;;17.33;13.00;;;;;52.58;9.38;102312.03;6213144;22;63366;-53
2023/05/26 09:29:53;;;;;;;;;14.33;12.67;;;;;52.60;8.66;102310.56;6212188;22;46777;-53
2023/05/26 09:32:18;;;;;;;;;13.50;12.00;;;;;52.30;8.80;102312.28;6185046;22;45397;-53
2023/05/26 09:34:44;;;;;;;;;16.75;12.00;;;;;52.25;8.63;102323.75;6214741;22;45398;-52
2023/05/26 09:37:10;;;;;;;;;9.67;9.00;;;;;52.33;9.34;102314.44;6185881;22;45365;-54
2023/05/26 09:39:35;;;;;;;;;13.00;11.50;;;;;52.81;8.26;102309.13;6213244;22;45898;-54
2023/05/26 09:42:04;;;;;;;;;13.75;11.50;;;;;53.45;8.45;102311.38;6212957;22;45677;-54
2023/05/26 09:44:31;;;;;;;;;15.67;14.67;;;;;53.65;8.27;102315.50;6187525;22;45241;-54
2023/05/26 09:46:57;;;;;;;;;14.25;12.25;;;;;53.04;6.79;102322.03;6186809;22;45434;-57
2023/05/26 09:49:22;;;;;;;;;16.75;10.50;;;;;53.10;7.66;102314.16;6212502;22;68418;-54
2023/05/26 09:51:51;;;;;;;;;17.00;13.67;;;;;52.95;7.78;102323.16;6213953;22;70266;-54
2023/05/26 09:54:16;;;;;;;;;17.33;17.00;;;;;52.68;8.19;102313.75;6215344;22;45347;-54
2023/05/26 09:56:59;;;;;;;;;16.75;13.00;;;;;52.74;8.21;102306.72;6214566;22;45267;-56
2023/05/26 09:59:32;;;;;;;;;13.33;13.00;;;;;53.20;8.08;102299.66;6212537;22;46512;-54
2023/05/26 10:01:58;;;;;;;;;13.00;13.00;;;;;53.56;7.46;102294.78;6213633;22;45675;-53
2023/05/26 10:04:24;;;;;;;;;16.67;13.67;;;;;53.64;8.25;102310.16;6187808;22;45673;-55
2023/05/26 10:06:51;;;;;;;;;13.00;11.67;;;;;53.57;7.46;102310.69;6187771;22;45372;-56
2023/05/26 10:09:20;;;;;;;;;10.67;10.67;;;;;53.58;7.68;102303.81;6213262;22;45382;-55
2023/05/26 10:11:46;;;;;;;;;11.00;11.00;;;;;53.68;7.58;102312.00;6186926;22;45372;-55
2023/05/26 10:14:12;;;;;;;;;20.00;17.00;;;;;53.44;7.10;102308.84;6187328;22;45357;-55
2023/05/26 10:16:37;;;;;;;;;10.00;10.00;;;;;53.87;7.93;102302.28;6188435;22;45236;-56
2023/05/26 10:19:03;;;;;;;;;12.67;12.33;;;;;54.62;7.07;102301.81;6213566;22;45524;-56
2023/05/26 10:21:33;;;;;;;;;15.00;13.33;;;;;54.47;7.95;102303.22;6214697;22;45329;-57
2023/05/26 10:24:09;;;;;;;;;13.67;13.00;;;;;54.72;7.66;102300.56;6188037;22;45321;-56
2023/05/26 10:27:12;;;;;;;;;15.00;12.00;;;;;55.00;6.53;102309.44;6215323;22;45293;-56
2023/05/26 10:29:49;;;;;;;;;16.33;14.33;;;;;54.63;7.08;102306.34;6187117;22;48100;-54
2023/05/26 10:32:44;;;;;;;;;17.00;14.00;;;;;54.66;7.15;102304.78;6157064;23;45417;-54
2023/05/26 10:35:29;;;;;;;;;15.67;12.67;;;;;55.21;6.99;102297.22;6183529;22;45272;-54
2023/05/26 10:38:03;;;;;;;;;13.67;11.67;;;;;54.79;7.10;102302.88;6183076;22;45463;-54
2023/05/26 10:40:42;;;;;;;;;12.00;12.00;;;;;54.94;6.34;102302.25;6183868;23;45292;-55
2023/05/26 10:43:24;;;;;;;;;18.33;15.00;;;;;54.41;7.22;102295.19;6183973;22;45233;-54
2023/05/26 10:45:57;;;;;;;;;18.00;13.00;;;;;54.59;6.75;102293.94;6208793;22;45311;-55
2023/05/26 10:48:34;;;;;;;;;17.67;14.00;;;;;55.19;7.03;102291.88;6208067;22;45474;-56
2023/05/26 10:51:00;;;;;;;;;13.67;13.67;;;;;55.39;6.74;102286.47;6183250;23;47086;-55
2023/05/26 10:53:30;;;;;;;;;16.00;11.67;;;;;55.22;6.94;102286.63;6185024;22;45355;-55
2023/05/26 10:56:03;;;;;;;;;20.33;15.00;;;;;54.73;6.06;102285.16;6182138;23;45316;-56
2023/05/26 10:58:29;;;;;;;;;11.00;10.33;;;;;53.73;7.19;102280.56;6184692;22;45285;-55
2023/05/26 11:00:55;;;;;;;;;11.75;11.75;;;;;53.39;7.39;102279.44;6183603;22;45872;-55
2023/05/26 11:03:44;;;;;;;;;17.67;14.00;;;;;52.79;7.16;102271.72;6208566;22;45237;-55
2023/05/26 11:06:11;;;;;;;;;15.00;12.33;;;;;52.40;7.22;102271.41;6184163;23;45307;-55
2023/05/26 11:08:37;;;;;;;;;13.50;12.50;;;;;51.97;8.49;102257.88;6184506;22;45342;-54
2023/05/26 11:11:10;;;;;;;;;15.33;14.00;;;;;52.01;8.26;102259.75;6181767;23;45989;-55